Time;durP1;ratioP1;P1;durP2;ratioP2;P2;SDS_P1;SDS_P2;PMS_P1;PMS_P2;Temp;Humidity;BMP_temperature;BMP_pressure;BME280_temperature;BME280_humidity;BME280_pressure;Samples;Min_cycle;Max_cycle;Signal;HPM_P1;HPM_P2
2022/06/13 00:01:03;;;;;;;20.55;6.35;;;;;;;17.43;100.00;102138.41;5063368;28;20151;-69
2022/06/13 00:03:29;;;;;;;17.55;6.80;;;;;;;17.43;100.00;102143.97;5029155;28;20157;-71
2022/06/13 00:05:54;;;;;;;16.52;6.78;;;;;;;17.36;100.00;102138.78;5064550;28;20151;-70
2022/06/13 00:08:20;;;;;;;17.75;6.38;;;;;;;17.38;100.00;102139.34;5060188;28;20025;-70
2022/06/13 00:10:45;;;;;;;19.85;6.13;;;;;;;17.30;100.00;102136.38;5028710;28;20036;-70
2022/06/13 00:13:11;;;;;;;21.70;6.53;;;;;;;17.29;100.00;102126.44;5060539;28;20033;-71
2022/06/13 00:15:37;;;;;;;20.90;7.03;;;;;;;17.34;100.00;102126.34;5065091;28;20024;-71
2022/06/13 00:18:06;;;;;;;14.88;6.70;;;;;;;17.29;100.00;102131.97;5048038;28;20025;-70
2022/06/13 00:20:31;;;;;;;20.77;7.35;;;;;;;17.28;100.00;102128.34;5031073;28;20040;-70
2022/06/13 00:22:57;;;;;;;21.55;6.53;;;;;;;17.29;100.00;102134.75;5062974;28;20059;-70
2022/06/13 00:25:22;;;;;;;21.35;7.72;;;;;;;17.25;100.00;102131.75;5027018;28;20591;-70
2022/06/13 00:27:48;;;;;;;18.50;7.07;;;;;;;17.19;100.00;102133.75;5044948;28;20075;-70
2022/06/13 00:30:13;;;;;;;23.05;6.90;;;;;;;17.24;100.00;102130.91;5063020;28;20482;-70
2022/06/13 00:32:39;;;;;;;21.42;7.53;;;;;;;17.14;100.00;102128.25;5065031;28;20459;-70
2022/06/13 00:35:08;;;;;;;18.60;6.63;;;;;;;17.11;100.00;102128.84;5063993;28;20025;-71
2022/06/13 00:37:33;;;;;;;19.33;6.65;;;;;;;17.30;100.00;102122.50;5061375;28;20016;-70
2022/06/13 00:39:59;;;;;;;21.77;7.95;;;;;;;17.27;100.00;102122.00;5060699;28;20040;-69
2022/06/13 00:42:28;;;;;;;21.80;7.38;;;;;;;17.14;100.00;102125.50;5062502;28;20494;-70
2022/06/13 00:45:15;;;;;;;16.42;7.18;;;;;;;17.33;100.00;102122.78;5064024;28;20067;-70
2022/06/13 00:47:43;;;;;;;25.10;7.63;;;;;;;17.36;100.00;102116.59;5063025;28;20043;-70
2022/06/13 00:50:15;;;;;;;21.13;7.35;;;;;;;17.34;100.00;102123.59;5061628;28;20123;-70
2022/06/13 00:52:52;;;;;;;21.10;7.67;;;;;;;17.33;100.00;102117.22;5057735;28;20399;-70
2022/06/13 00:55:38;;;;;;;18.17;7.13;;;;;;;17.34;100.00;102118.03;5042466;28;20234;-70
2022/06/13 00:58:05;;;;;;;23.20;7.65;;;;;;;17.09;100.00;102120.00;5037907;28;20090;-69
2022/06/13 01:00:34;;;;;;;21.35;7.22;;;;;;;16.95;100.00;102116.28;5042747;28;20296;-70
2022/06/13 01:03:02;;;;;;;20.38;7.38;;;;;;;17.04;100.00;102109.81;5043772;28;20048;-70
2022/06/13 01:05:30;;;;;;;25.05;8.07;;;;;;;17.12;100.00;102115.81;5042494;28;20336;-70
2022/06/13 01:07:59;;;;;;;18.50;7.57;;;;;;;17.18;100.00;102117.41;5043482;28;20051;-70
2022/06/13 01:13:11;;;;;;;20.42;7.55;;;;;;;17.02;100.00;102125.91;5042848;28;20505;-72
2022/06/13 01:15:42;;;;;;;25.73;7.93;;;;;;;16.94;100.00;102120.16;5044993;28;20124;-70
2022/06/13 01:18:26;;;;;;;16.92;7.57;;;;;;;17.05;100.00;102116.16;5044791;28;20028;-70
2022/06/13 01:21:13;;;;;;;22.38;7.88;;;;;;;17.04;100.00;102120.06;5043492;28;20074;-69
2022/06/13 01:23:57;;;;;;;24.33;8.32;;;;;;;17.13;100.00;102123.81;5047129;28;20292;-70
2022/06/13 01:26:43;;;;;;;22.10;7.75;;;;;;;17.21;100.00;102119.59;5060848;28;20446;-69
2022/06/13 01:29:35;;;;;;;19.60;7.43;;;;;;;17.25;100.00;102120.66;5058395;28;20101;-70
2022/06/13 01:32:00;;;;;;;24.13;7.28;;;;;;;17.09;100.00;102114.47;5054080;28;20044;-70
2022/06/13 01:34:50;;;;;;;24.13;8.30;;;;;;;17.34;100.00;102121.63;5060169;28;20031;-70
2022/06/13 01:37:15;;;;;;;20.52;7.40;;;;;;;17.30;100.00;102115.03;5062249;28;20123;-71
2022/06/13 01:40:11;;;;;;;21.88;7.05;;;;;;;17.10;100.00;102116.09;5058268;28;20104;-70
2022/06/13 01:42:56;;;;;;;25.92;6.85;;;;;;;17.26;100.00;102113.97;5059365;28;20028;-70
2022/06/13 01:45:55;;;;;;;18.42;7.15;;;;;;;17.01;100.00;102113.16;5060905;28;20032;-69
2022/06/13 01:48:38;;;;;;;22.55;7.40;;;;;;;17.14;100.00;102114.41;5061782;28;20028;-70
2022/06/13 01:51:20;;;;;;;22.30;7.68;;;;;;;17.08;100.00;102121.94;5062418;28;20047;-70
2022/06/13 01:53:56;;;;;;;22.92;7.95;;;;;;;17.11;100.00;102120.53;5053951;28;20618;-70
2022/06/13 01:56:29;;;;;;;17.50;6.93;;;;;;;17.15;100.00;102116.06;5059816;28;20037;-69
2022/06/13 01:59:10;;;;;;;21.27;8.52;;;;;;;17.12;100.00;102122.19;5057385;28;20047;-69
2022/06/13 02:01:50;;;;;;;21.83;7.90;;;;;;;16.97;100.00;102117.66;5061161;28;20040;-70
2022/06/13 02:04:23;;;;;;;23.85;6.95;;;;;;;16.92;100.00;102119.66;5037956;28;20437;-70
2022/06/13 02:07:17;;;;;;;22.90;7.07;;;;;;;16.88;100.00;102122.19;5064690;28;20033;-71
2022/06/13 02:10:06;;;;;;;19.00;5.88;;;;;;;16.50;100.00;102122.81;5055591;28;20055;-70
2022/06/13 02:12:34;;;;;;;13.60;4.78;;;;;;;16.21;100.00;102121.97;5057995;28;20386;-70
2022/06/13 02:15:07;;;;;;;12.52;4.30;;;;;;;16.38;100.00;102113.22;5049363;28;20021;-71
2022/06/13 02:17:38;;;;;;;13.13;3.60;;;;;;;16.50;100.00;102122.81;5042367;28;20021;-69
2022/06/13 02:20:22;;;;;;;10.27;3.53;;;;;;;16.31;100.00;102124.63;5038740;28;20480;-69
2022/06/13 02:22:56;;;;;;;9.43;3.25;;;;;;;16.42;100.00;102122.63;5041158;28;20039;-69
2022/06/13 02:25:36;;;;;;;8.95;3.35;;;;;;;16.64;100.00;102130.44;5052762;28;20021;-71
2022/06/13 02:28:11;;;;;;;6.78;2.75;;;;;;;16.74;100.00;102122.00;5059296;28;20058;-69
2022/06/13 02:30:43;;;;;;;7.75;3.63;;;;;;;16.85;100.00;102128.31;5060620;28;20032;-70
2022/06/13 02:33:18;;;;;;;8.65;3.15;;;;;;;16.87;100.00;102126.91;5062331;28;20052;-70
2022/06/13 02:35:56;;;;;;;10.15;3.42;;;;;;;16.89;100.00;102130.22;5059101;28;20021;-70
2022/06/13 02:38:32;;;;;;;13.48;3.78;;;;;;;16.59;100.00;102124.94;5059621;28;20040;-69
2022/06/13 02:41:03;;;;;;;10.60;3.72;;;;;;;16.70;100.00;102126.50;5060546;28;20131;-69
2022/06/13 02:43:40;;;;;;;9.40;3.25;;;;;;;16.90;100.00;102126.31;5057976;28;20475;-70
2022/06/13 02:46:11;;;;;;;9.25;3.65;;;;;;;16.47;100.00;102128.09;5061979;28;20032;-68
2022/06/13 02:48:46;;;;;;;10.32;3.58;;;;;;;16.46;100.00;102132.81;5059140;28;20434;-70
2022/06/13 02:51:24;;;;;;;12.38;3.92;;;;;;;16.58;100.00;102135.19;5062872;28;20025;-70
2022/06/13 02:54:08;;;;;;;9.60;3.15;;;;;;;16.16;100.00;102137.47;5057456;28;20036;-69
2022/06/13 03:00:04;;;;;;;10.27;3.40;;;;;;;16.41;100.00;102130.06;5061653;28;20157;-69
2022/06/13 03:02:44;;;;;;;10.13;3.30;;;;;;;16.51;100.00;102135.53;5066139;28;20190;-70
2022/06/13 03:05:47;;;;;;;12.20;4.00;;;;;;;16.35;100.00;102145.09;5065423;28;20020;-70
2022/06/13 03:08:38;;;;;;;10.82;3.25;;;;;;;15.99;100.00;102148.13;5064663;28;20024;-70
2022/06/13 03:11:27;;;;;;;8.98;3.10;;;;;;;16.08;100.00;102140.84;5056880;28;20383;-68
2022/06/13 03:14:19;;;;;;;7.07;3.03;;;;;;;15.88;100.00;102139.06;5064155;28;20508;-71
2022/06/13 03:17:02;;;;;;;7.57;3.08;;;;;;;16.06;100.00;102145.03;5064072;28;20036;-69
2022/06/13 03:19:41;;;;;;;6.70;3.15;;;;;;;16.01;100.00;102148.66;5065898;28;20144;-69
2022/06/13 03:22:16;;;;;;;9.63;3.17;;;;;;;15.80;100.00;102143.25;5067154;28;20028;-69
2022/06/13 03:24:47;;;;;;;10.05;3.22;;;;;;;16.09;100.00;102145.28;5058714;28;20047;-70
2022/06/13 03:27:22;;;;;;;10.80;3.28;;;;;;;16.07;100.00;102143.91;5064634;28;20386;-69
2022/06/13 03:29:58;;;;;;;8.07;3.00;;;;;;;16.05;100.00;102146.97;5062469;28;20140;-69
2022/06/13 03:32:29;;;;;;;13.77;3.88;;;;;;;16.08;100.00;102151.09;5046183;28;20104;-68
2022/06/13 03:34:59;;;;;;;8.73;2.67;;;;;;;16.07;100.00;102154.97;5044125;28;20032;-69
2022/06/13 03:37:35;;;;;;;7.82;2.75;;;;;;;15.94;100.00;102159.25;5044986;28;20087;-68
2022/06/13 03:40:08;;;;;;;9.05;2.65;;;;;;;16.21;100.00;102153.22;5040695;28;20025;-70
2022/06/13 03:42:40;;;;;;;6.80;2.30;;;;;;;15.99;100.00;102154.50;5041053;28;20094;-70
2022/06/13 03:45:18;;;;;;;7.55;2.67;;;;;;;15.88;100.00;102160.38;5044495;28;20128;-68
2022/06/13 03:47:58;;;;;;;8.07;2.50;;;;;;;15.91;100.00;102173.63;5044697;28;20064;-69
2022/06/13 03:50:31;;;;;;;8.07;2.47;;;;;;;15.87;100.00;102176.16;5044198;28;20124;-69
2022/06/13 03:53:18;;;;;;;8.32;2.97;;;;;;;15.80;100.00;102176.44;5044052;28;20025;-70
2022/06/13 03:56:08;;;;;;;5.40;2.20;;;;;;;16.08;100.00;102173.25;5040116;28;20025;-69
2022/06/13 03:58:41;;;;;;;10.05;2.55;;;;;;;15.86;100.00;102177.25;5041999;28;20056;-69
2022/06/13 04:01:18;;;;;;;7.25;2.20;;;;;;;15.84;100.00;102176.72;5045174;28;20059;-69
2022/06/13 04:03:43;;;;;;;9.25;2.55;;;;;;;15.96;100.00;102177.19;5042089;28;20025;-70
2022/06/13 04:06:37;;;;;;;13.35;3.03;;;;;;;16.15;100.00;102180.13;5044128;28;20029;-69
2022/06/13 04:09:13;;;;;;;8.27;2.38;;;;;;;16.42;100.00;102181.56;5042657;28;20464;-69
2022/06/13 04:12:09;;;;;;;10.25;2.45;;;;;;;16.26;100.00;102180.84;5040682;28;20459;-69
2022/06/13 04:15:38;;;;;;;9.65;2.50;;;;;;;15.72;100.00;102182.53;5042353;28;20112;-69
2022/06/13 04:18:31;;;;;;;10.85;2.80;;;;;;;15.65;100.00;102183.97;5022195;28;20029;-70
2022/06/13 04:20:59;;;;;;;;;;;;;;;16.13;100.00;102178.72;5024202;28;20069;-70
2022/06/13 04:23:54;;;;;;;5.35;1.95;;;;;;;15.99;100.00;102181.31;5029533;28;19924;-69
2022/06/13 04:26:32;;;;;;;9.23;2.30;;;;;;;15.81;100.00;102177.28;5043304;28;20446;-70
2022/06/13 04:29:12;;;;;;;6.45;2.53;;;;;;;15.96;100.00;102174.41;5041944;28;20216;-70
2022/06/13 04:31:39;;;;;;;5.97;2.35;;;;;;;15.57;100.00;102188.97;5043342;28;20056;-69
2022/06/13 04:34:16;;;;;;;6.85;2.25;;;;;;;15.86;100.00;102179.19;5043824;28;20035;-69
2022/06/13 04:36:43;;;;;;;5.90;1.88;;;;;;;16.09;100.00;102178.50;5043052;28;20391;-69
2022/06/13 04:39:13;;;;;;;6.47;2.38;;;;;;;16.36;100.00;102191.00;5039380;28;20028;-70
2022/06/13 04:41:42;;;;;;;9.82;2.60;;;;;;;15.82;100.00;102200.22;5056871;28;20020;-69
2022/06/13 04:44:14;;;;;;;10.27;2.92;;;;;;;15.91;100.00;102196.56;5058587;28;20163;-70
2022/06/13 04:46:41;;;;;;;9.48;3.17;;;;;;;15.78;100.00;102197.22;5062239;28;20028;-70
2022/06/13 04:49:36;;;;;;;9.18;3.15;;;;;;;16.37;100.00;102194.63;5063290;28;20034;-70
2022/06/13 04:52:08;;;;;;;10.13;3.08;;;;;;;15.89;100.00;102206.25;5064845;28;20033;-69
2022/06/13 04:54:39;;;;;;;9.88;3.38;;;;;;;15.89;100.00;102193.28;5061017;28;20062;-70
2022/06/13 04:57:06;;;;;;;5.95;2.38;;;;;;;15.80;100.00;102203.28;5065018;28;20033;-68
2022/06/13 04:59:33;;;;;;;10.00;2.40;;;;;;;15.39;100.00;102197.88;5060647;28;20040;-69
2022/06/13 05:02:02;;;;;;;7.03;2.78;;;;;;;15.75;100.00;102206.84;5046873;28;20495;-70
2022/06/13 05:04:30;;;;;;;10.77;3.00;;;;;;;15.65;100.00;102201.38;5061785;28;20270;-70
2022/06/13 05:06:59;;;;;;;12.05;2.70;;;;;;;15.59;100.00;102213.56;5062742;28;20485;-70
2022/06/13 05:09:28;;;;;;;8.27;2.30;;;;;;;15.66;100.00;102214.09;5061517;28;20028;-69
2022/06/13 05:12:20;;;;;;;8.77;2.65;;;;;;;15.56;100.00;102222.41;5063337;28;20823;-69
